EVRA/RIX METAR and TAF weather

Enter ICAO airport designator
Station Type Date Time Source
EVRA METAR 2019/02/20 23:50 UTC NOAA

EVRA 202350Z 33014KT 300V360 9999 BKN033 M01/M08 Q1014 R36/190095 NOSIG


Station Type Date Time Source
EVRA Decoded METAR 2019/02/20 23:50 UTC NOAA

Riga International Airport, Latvia (EVRA) 56-55N 023-58E
Feb 20, 2019 - 06:50 PM EST / 2019.02.20 2350 UTC
Wind: from the NNW (330 degrees) at 16 MPH (14 KT) (direction variable):0
Visibility: greater than 7 mile(s):0
Sky conditions: mostly cloudy
Temperature: 30 F (-1 C)
Windchill: 19 F (-7 C):1
Dew Point: 17 F (-8 C)
Relative Humidity: 58%
Pressure (altimeter): 29.94 in. Hg (1014 hPa)
ob: EVRA 202350Z 33014KT 300V360 9999 BKN033 M01/M08 Q1014 R36/190095 NOSIG
cycle: 0

Station Type Date Time Source
EVRA TAF 2019/02/20 21:08 UTC NOAA

TAF EVRA 202003Z 2021/2121 32015G25KT 9999 BKN030
TEMPO 2021/2103 34018G30KT
BECMG 2104/2106 36007KT


Example: see airport list